Time;durP1;ratioP1;P1;durP2;ratioP2;P2;SDS_P1;SDS_P2;PMS_P1;PMS_P2;Temp;Humidity;BMP_temperature;BMP_pressure;BME280_temperature;BME280_humidity;BME280_pressure;Samples;Min_cycle;Max_cycle;Signal;HPM_P1;HPM_P2
2024/03/18 00:05:49;;;;;;;2.40;2.00;;;;;;;0.91;74.08;98943.20;435233;1256;99243;-40
2024/03/18 00:15:55;;;;;;;7.50;1.80;;;;;;;0.94;74.37;98937.75;435818;1251;111889;-40
2024/03/18 00:26:01;;;;;;;4.20;2.20;;;;;;;0.79;75.04;98927.84;435337;1251;107962;-40
2024/03/18 00:36:08;;;;;;;4.20;2.80;;;;;;;0.64;75.50;98924.52;435289;1251;99217;-39
2024/03/18 00:46:15;;;;;;;2.50;1.90;;;;;;;0.44;75.92;98922.28;435363;1254;110751;-39
2024/03/18 00:56:22;;;;;;;3.40;2.90;;;;;;;0.28;76.54;98914.77;435757;1254;108463;-40
2024/03/18 01:06:28;;;;;;;3.30;2.40;;;;;;;0.26;77.09;98910.55;435219;1251;98044;-41
2024/03/18 01:16:34;;;;;;;5.20;3.40;;;;;;;0.34;77.38;98906.02;435266;1251;108638;-38
2024/03/18 01:26:40;;;;;;;6.90;4.20;;;;;;;0.34;77.65;98891.46;435442;1254;98608;-39
2024/03/18 01:46:52;;;;;;;4.70;3.40;;;;;;;0.20;78.64;98885.42;435215;1250;108563;-40
2024/03/18 01:56:58;;;;;;;8.60;3.30;;;;;;;0.23;78.87;98882.81;435206;1256;99250;-39
2024/03/18 02:07:20;;;;;;;7.50;3.90;;;;;;;0.22;79.35;98884.68;435497;1255;111273;-40
2024/03/18 02:17:26;;;;;;;6.70;4.60;;;;;;;0.13;79.73;98890.67;435213;1256;107249;-40
2024/03/18 02:27:32;;;;;;;6.70;4.40;;;;;;;0.04;79.83;98884.60;435410;1254;99230;-40
2024/03/18 02:37:38;;;;;;;5.80;3.20;;;;;;;0.07;80.20;98885.35;436806;1256;108288;-39
2024/03/18 02:47:45;;;;;;;3.80;2.40;;;;;;;0.05;80.25;98883.56;435313;1250;99228;-39
2024/03/18 02:57:51;;;;;;;4.90;2.50;;;;;;;-0.09;79.91;98886.12;435447;1253;111692;-38
2024/03/18 03:07:58;;;;;;;2.90;1.70;;;;;;;-0.16;79.50;98890.31;435298;1251;107302;-39
2024/03/18 03:28:09;;;;;;;3.80;1.70;;;;;;;0.02;79.02;98877.38;435310;1256;112013;-40
2024/03/18 03:38:15;;;;;;;4.40;2.90;;;;;;;-0.14;78.82;98868.27;435418;1256;108290;-39
2024/03/18 03:48:21;;;;;;;7.50;2.00;;;;;;;-0.39;78.47;98868.36;435696;1256;98006;-39
2024/03/18 03:58:30;;;;;;;6.40;3.80;;;;;;;-0.50;78.26;98864.08;435292;1256;110293;-40
2024/03/18 04:08:36;;;;;;;10.50;6.90;;;;;;;-0.56;78.15;98865.45;435436;1256;107306;-40
2024/03/18 04:28:49;;;;;;;15.90;7.20;;;;;;;-0.60;78.59;98877.59;435610;1256;111541;-40
2024/03/18 04:38:56;;;;;;;12.80;5.10;;;;;;;-0.56;78.51;98878.73;435294;1256;109774;-40
2024/03/18 04:49:02;;;;;;;33.60;14.20;;;;;;;-0.52;78.55;98883.92;435323;1257;98483;-40
2024/03/18 04:59:08;;;;;;;14.00;5.60;;;;;;;-0.41;78.53;98882.22;435302;1264;111710;-39
2024/03/18 05:09:15;;;;;;;11.30;3.50;;;;;;;-0.25;78.44;98882.59;435407;1256;107326;-40
2024/03/18 05:29:29;;;;;;;11.80;6.70;;;;;;;-0.26;78.85;98886.80;435858;1256;112015;-40
2024/03/18 05:39:36;;;;;;;15.70;7.00;;;;;;;-0.25;78.73;98889.17;434905;1256;629049;-39
2024/03/18 05:59:47;;;;;;;9.00;3.90;;;;;;;-0.10;78.95;98894.47;435312;1256;108173;-40
2024/03/18 06:09:53;;;;;;;27.90;11.60;;;;;;;-0.15;78.97;98892.95;435274;1251;99228;-40
2024/03/18 06:20:03;;;;;;;9.50;5.20;;;;;;;-0.17;78.81;98891.58;435344;1256;111380;-40
2024/03/18 06:30:11;;;;;;;13.50;5.80;;;;;;;-0.16;78.52;98888.76;435868;1256;106767;-41
2024/03/18 06:40:16;;;;;;;7.60;4.00;;;;;;;-0.05;78.36;98897.25;436082;1263;99243;-40
2024/03/18 06:50:24;;;;;;;12.30;7.60;;;;;;;0.03;78.50;98895.15;435742;1264;108897;-38
2024/03/18 07:00:31;;;;;;;7.80;5.20;;;;;;;0.07;78.32;98891.59;435093;1251;99110;-39
2024/03/18 07:10:37;;;;;;;8.90;6.10;;;;;;;0.08;78.22;98890.30;435481;1251;111154;-39
2024/03/18 07:20:43;;;;;;;11.70;6.00;;;;;;;0.27;78.11;98885.33;435296;1252;108015;-39
2024/03/18 07:40:57;;;;;;;10.90;8.10;;;;;;;0.90;77.12;98887.79;435299;1256;110721;-39
2024/03/18 07:51:08;;;;;;;15.40;10.70;;;;;;;0.76;76.38;98883.36;435194;1257;109497;-40
2024/03/18 08:01:13;;;;;;;18.40;9.70;;;;;;;1.00;76.63;98887.47;435314;1256;98016;-39
2024/03/18 08:11:20;;;;;;;11.30;7.50;;;;;;;1.19;75.97;98886.98;435292;1256;112962;-40
2024/03/18 08:21:26;;;;;;;12.80;5.70;;;;;;;1.34;75.43;98885.94;435104;1251;108181;-39
2024/03/18 08:31:33;;;;;;;12.40;5.60;;;;;;;1.71;75.02;98878.39;435155;1251;99249;-40
2024/03/18 08:41:39;;;;;;;9.90;6.70;;;;;;;2.45;75.19;98861.80;435208;1257;107525;-40
2024/03/18 08:51:46;;;;;;;9.70;6.30;;;;;;;3.16;72.95;98854.80;435357;1256;99334;-40
2024/03/18 09:01:51;;;;;;;6.80;5.20;;;;;;;3.09;71.45;98852.69;435277;1257;112755;-39
2024/03/18 09:11:57;;;;;;;7.10;4.90;;;;;;;3.09;71.38;98845.26;435318;1257;107105;-40
2024/03/18 09:22:02;;;;;;;4.60;4.20;;;;;;;4.23;71.28;98839.02;435095;1251;98603;-39
2024/03/18 09:32:08;;;;;;;3.70;3.00;;;;;;;4.28;69.84;98833.14;435244;1251;112067;-39
2024/03/18 09:42:14;;;;;;;10.10;5.50;;;;;;;4.49;69.37;98830.83;435291;1255;106726;-39
2024/03/18 09:52:21;;;;;;;8.10;5.00;;;;;;;4.27;67.38;98830.64;435374;1256;98841;-40
2024/03/18 10:02:28;;;;;;;3.30;3.00;;;;;;;4.26;67.56;98829.90;435211;1251;111548;-40
2024/03/18 10:12:34;;;;;;;4.40;4.00;;;;;;;4.36;66.90;98825.09;435282;1254;108519;-39
2024/03/18 10:32:49;;;;;;;65.70;24.70;;;;;;;4.02;66.25;98818.73;435392;1251;112922;-39
2024/03/18 11:03:21;;;;;;;10.80;7.40;;;;;;;3.72;66.22;98813.17;435432;1251;107332;-40
2024/03/18 11:13:32;;;;;;;6.90;5.90;;;;;;;3.80;65.99;98805.59;435353;1254;99250;-39
2024/03/18 11:23:38;;;;;;;27.00;11.80;;;;;;;4.11;66.54;98799.92;435500;1256;110902;-39
2024/03/18 11:33:46;;;;;;;5.90;5.00;;;;;;;4.50;65.86;98797.56;435412;1254;107423;-40
2024/03/18 11:43:52;;;;;;;11.50;6.90;;;;;;;4.60;65.31;98790.46;435268;1251;97999;-39
2024/03/18 11:54:00;;;;;;;9.00;5.40;;;;;;;5.04;65.50;98783.20;435218;1251;111327;-39
2024/03/18 12:04:07;;;;;;;9.60;6.50;;;;;;;5.08;64.83;98771.47;435300;1256;106647;-39
2024/03/18 12:14:13;;;;;;;7.30;5.30;;;;;;;4.98;64.72;98765.78;435391;1256;98622;-40
2024/03/18 12:34:41;;;;;;;7.30;4.10;;;;;;;4.68;64.57;98748.69;435129;1254;108129;-39
2024/03/18 12:44:48;;;;;;;7.70;4.90;;;;;;;4.80;64.60;98747.52;435375;1251;98821;-40
2024/03/18 12:54:54;;;;;;;6.70;3.90;;;;;;;4.86;64.34;98742.36;435341;1251;111451;-40
2024/03/18 13:05:00;;;;;;;5.00;3.50;;;;;;;4.92;64.55;98731.84;435260;1251;108728;-40
2024/03/18 13:15:09;;;;;;;5.20;3.20;;;;;;;4.97;64.37;98730.27;435278;1251;98628;-39
2024/03/18 13:25:16;;;;;;;5.50;3.10;;;;;;;5.06;63.73;98725.29;435325;1251;110200;-39
2024/03/18 13:45:28;;;;;;;8.00;4.00;;;;;;;4.86;63.01;98731.59;435261;1256;97990;-38
2024/03/18 13:55:35;;;;;;;9.10;4.50;;;;;;;4.66;63.56;98742.41;435395;1250;111046;-40
2024/03/18 14:15:47;;;;;;;11.30;5.30;;;;;;;4.12;63.82;98747.65;435397;1256;97951;-39
2024/03/18 14:25:52;;;;;;;25.50;9.70;;;;;;;4.00;64.27;98751.38;435300;1250;111642;-39
2024/03/18 14:35:59;;;;;;;14.80;7.20;;;;;;;3.80;64.62;98757.27;435234;1251;108491;-39
2024/03/18 14:46:05;;;;;;;16.20;11.30;;;;;;;3.54;65.18;98758.66;435305;1250;97999;-39
2024/03/18 14:56:12;;;;;;;12.90;10.30;;;;;;;3.34;65.77;98764.84;435253;1256;112006;-38
2024/03/18 15:16:24;;;;;;;12.90;6.80;;;;;;;3.01;66.54;98770.48;435268;1254;99248;-39
2024/03/18 15:36:56;;;;;;;13.20;9.40;;;;;;;3.04;67.12;98776.41;435311;1251;98934;-39
2024/03/18 15:47:01;;;;;;;30.90;13.50;;;;;;;2.94;67.45;98789.52;436561;1255;110589;-39
2024/03/18 15:57:06;;;;;;;17.50;10.30;;;;;;;2.76;67.65;98796.75;435876;1253;108930;-39
2024/03/18 16:17:18;;;;;;;16.50;10.10;;;;;;;2.57;68.22;98806.07;435468;1251;110774;-40
2024/03/18 16:27:24;;;;;;;19.00;11.30;;;;;;;2.48;68.36;98811.20;434971;1251;108207;-40
2024/03/18 16:37:31;;;;;;;24.10;11.70;;;;;;;2.44;68.51;98819.15;435238;1252;97959;-39
2024/03/18 16:47:36;;;;;;;16.90;9.30;;;;;;;2.31;69.09;98827.54;435299;1252;111894;-39
2024/03/18 16:57:41;;;;;;;29.30;16.70;;;;;;;2.20;69.10;98834.79;435982;1254;107681;-39
2024/03/18 17:07:48;;;;;;;13.00;8.50;;;;;;;2.06;69.08;98843.45;435285;1254;98815;-40
2024/03/18 17:17:54;;;;;;;16.60;7.80;;;;;;;1.90;69.41;98853.76;435261;1256;111653;-38
2024/03/18 17:28:01;;;;;;;9.70;6.10;;;;;;;1.93;69.85;98852.87;435230;1250;109330;-40
2024/03/18 17:38:08;;;;;;;16.50;7.90;;;;;;;1.87;70.20;98863.08;435219;1254;446265;-41
2024/03/18 17:48:15;;;;;;;18.90;9.50;;;;;;;1.79;70.40;98871.86;435314;1256;109085;-39
2024/03/18 17:58:22;;;;;;;26.80;11.60;;;;;;;1.72;70.64;98881.41;435305;1254;97982;-40
2024/03/18 18:18:34;;;;;;;13.90;7.90;;;;;;;1.78;71.30;98887.36;435871;1251;108684;-38
2024/03/18 18:28:40;;;;;;;15.60;9.90;;;;;;;1.72;71.68;98901.23;435401;1254;99353;-40
2024/03/18 18:38:48;;;;;;;19.10;11.70;;;;;;;1.67;71.92;98904.61;435416;1251;111859;-39
2024/03/18 19:09:07;;;;;;;21.10;12.70;;;;;;;1.69;72.53;98907.10;435259;1254;111544;-39
2024/03/18 19:19:13;;;;;;;36.80;20.40;;;;;;;1.80;72.67;98905.57;435218;1251;108036;-40
2024/03/18 19:29:20;;;;;;;46.70;23.60;;;;;;;1.88;73.13;98899.45;435436;1252;99231;-39
2024/03/18 19:39:38;;;;;;;37.90;18.80;;;;;;;1.87;73.15;98902.59;435308;1256;111801;-40
2024/03/18 19:49:43;;;;;;;57.30;28.60;;;;;;;1.69;73.21;98904.13;435461;1253;108367;-39
2024/03/18 19:59:50;;;;;;;28.40;15.40;;;;;;;1.63;73.59;98912.30;435325;1250;98047;-39
2024/03/18 20:09:56;;;;;;;32.30;17.20;;;;;;;1.65;73.51;98914.11;435338;1256;112682;-41
2024/03/18 20:20:03;;;;;;;26.40;13.30;;;;;;;1.74;73.55;98922.02;435202;1250;107296;-41
2024/03/18 20:30:12;;;;;;;32.90;16.60;;;;;;;1.75;73.77;98924.88;435254;1253;99234;-39
2024/03/18 20:40:19;;;;;;;31.10;17.40;;;;;;;1.67;74.19;98926.06;435408;1250;111695;-38
2024/03/18 20:50:26;;;;;;;29.70;15.90;;;;;;;1.61;74.37;98935.84;435360;1256;106766;-40
2024/03/18 21:00:32;;;;;;;30.60;14.90;;;;;;;1.53;74.40;98935.40;435566;1256;97994;-39
2024/03/18 21:10:38;;;;;;;22.30;12.20;;;;;;;1.51;74.55;98935.47;435380;1256;111596;-39
2024/03/18 21:20:44;;;;;;;16.00;10.10;;;;;;;1.60;74.58;98935.02;435369;1256;109453;-40
2024/03/18 21:30:50;;;;;;;26.10;12.80;;;;;;;1.59;74.81;98932.48;435349;1256;99537;-39
2024/03/18 21:51:04;;;;;;;27.80;15.10;;;;;;;1.39;75.24;98932.80;435298;1255;107929;-39
2024/03/18 22:01:10;;;;;;;23.10;14.60;;;;;;;1.33;75.29;98929.28;435291;1256;99263;-39
2024/03/18 22:21:23;;;;;;;14.40;9.70;;;;;;;1.41;75.61;98939.15;435282;1251;108290;-41
2024/03/18 22:31:30;;;;;;;26.70;15.20;;;;;;;1.46;75.86;98941.77;435417;1250;97993;-39
2024/03/18 22:41:37;;;;;;;33.60;16.30;;;;;;;1.44;75.89;98941.64;435227;1256;108258;-38
2024/03/18 22:51:42;;;;;;;21.40;12.90;;;;;;;1.39;76.10;98937.33;435336;1250;99269;-40
2024/03/18 23:01:49;;;;;;;20.70;11.30;;;;;;;1.32;76.27;98944.81;435344;1255;111306;-40
2024/03/18 23:22:01;;;;;;;16.00;8.90;;;;;;;1.43;76.66;98952.69;435289;1256;99224;-39
2024/03/18 23:32:08;;;;;;;28.60;13.40;;;;;;;1.44;76.64;98951.85;435319;1256;108779;-39
